createdAt,value
2023-04-14T00:02:14.022Z,74.80
2023-04-14T00:04:41.175Z,74.30
2023-04-14T00:07:16.050Z,74.29
2023-04-14T00:09:41.423Z,74.34
2023-04-14T00:12:12.816Z,74.56
2023-04-14T00:14:36.252Z,74.63
2023-04-14T00:17:20.494Z,74.59
2023-04-14T00:19:46.578Z,75.04
2023-04-14T00:22:22.111Z,74.76
2023-04-14T00:24:45.837Z,74.81
2023-04-14T00:27:09.482Z,75.07
2023-04-14T00:29:38.222Z,74.93
2023-04-14T00:32:01.845Z,74.78
2023-04-14T00:34:26.953Z,75.25
2023-04-14T00:36:54.258Z,75.16
2023-04-14T00:39:18.111Z,75.45
2023-04-14T00:41:44.857Z,76.09
2023-04-14T00:44:16.319Z,75.39
2023-04-14T00:46:43.344Z,75.59
2023-04-14T00:49:07.373Z,75.45
2023-04-14T00:51:37.049Z,75.89
2023-04-14T00:54:10.865Z,75.76
2023-04-14T00:56:57.460Z,75.34
2023-04-14T00:59:32.409Z,75.77
2023-04-14T01:02:00.584Z,75.52
2023-04-14T01:04:53.496Z,75.43
2023-04-14T01:07:19.097Z,75.22
2023-04-14T01:09:45.492Z,75.11
2023-04-14T01:12:48.972Z,75.36
2023-04-14T01:15:22.612Z,75.46
2023-04-14T01:17:54.487Z,75.26
2023-04-14T01:20:26.863Z,75.14
2023-04-14T01:22:58.462Z,75.25
2023-04-14T01:26:06.404Z,75.45
2023-04-14T01:28:56.231Z,75.40
2023-04-14T01:31:44.784Z,75.30
2023-04-14T01:34:14.028Z,75.30
2023-04-14T01:37:02.216Z,75.46
2023-04-14T01:39:42.416Z,75.83
2023-04-14T01:42:32.832Z,75.95
2023-04-14T01:45:02.272Z,75.90
2023-04-14T01:47:29.409Z,76.06
2023-04-14T01:50:06.847Z,76.38
2023-04-14T01:52:54.021Z,76.21
2023-04-14T01:55:19.977Z,76.26
2023-04-14T01:57:46.065Z,76.35
2023-04-14T02:00:13.032Z,76.29
2023-04-14T02:02:42.230Z,76.36
2023-04-14T02:05:09.643Z,76.40
2023-04-14T02:07:34.818Z,76.63
2023-04-14T02:10:03.226Z,77.00
2023-04-14T02:12:31.618Z,76.99
2023-04-14T02:15:00.754Z,76.44
2023-04-14T02:17:26.624Z,76.25
2023-04-14T02:19:51.163Z,76.15
2023-04-14T02:22:15.746Z,76.16
2023-04-14T02:24:51.011Z,76.11
2023-04-14T02:27:18.209Z,75.97
2023-04-14T02:29:48.430Z,75.95
2023-04-14T02:32:21.475Z,76.07
2023-04-14T02:34:53.594Z,76.05
2023-04-14T02:37:35.871Z,76.08
2023-04-14T02:40:24.576Z,76.19
2023-04-14T02:43:02.893Z,76.36
2023-04-14T02:45:30.307Z,76.34
2023-04-14T02:47:58.154Z,76.45
2023-04-14T02:50:27.003Z,76.42
2023-04-14T02:53:00.874Z,76.65
2023-04-14T02:55:34.698Z,76.70
2023-04-14T02:57:59.494Z,76.89
2023-04-14T03:00:24.519Z,76.98
2023-04-14T03:02:51.608Z,77.19
2023-04-14T03:05:18.687Z,77.41
2023-04-14T03:07:53.716Z,77.53
2023-04-14T03:10:27.567Z,77.60
2023-04-14T03:12:54.110Z,77.79
2023-04-14T03:15:22.157Z,77.99
2023-04-14T03:17:53.455Z,78.11
2023-04-14T03:20:21.185Z,78.19
2023-04-14T03:23:00.961Z,78.41
2023-04-14T03:25:28.900Z,78.81
2023-04-14T03:27:55.346Z,78.82
2023-04-14T03:30:24.657Z,78.98
2023-04-14T03:32:52.008Z,78.98
2023-04-14T03:35:37.423Z,79.34
2023-04-14T03:38:08.496Z,79.32
2023-04-14T03:40:37.820Z,79.43
2023-04-14T03:43:03.387Z,79.64
2023-04-14T03:45:48.860Z,79.82
2023-04-14T03:48:30.611Z,79.84
2023-04-14T03:51:17.119Z,79.98
2023-04-14T03:53:47.426Z,80.17
2023-04-14T03:56:15.445Z,80.21
2023-04-14T03:58:55.859Z,80.26
2023-04-14T04:01:28.298Z,80.45
2023-04-14T04:04:05.723Z,80.38
2023-04-14T04:06:49.578Z,80.34
2023-04-14T04:09:15.336Z,80.41
2023-04-14T04:11:43.405Z,80.36
2023-04-14T04:14:08.269Z,80.31
2023-04-14T04:16:38.238Z,80.23
2023-04-14T04:19:04.646Z,80.32
2023-04-14T04:21:31.858Z,80.20
2023-04-14T04:24:15.160Z,80.26
2023-04-14T04:26:39.508Z,80.36
2023-04-14T04:29:04.017Z,80.31
2023-04-14T04:31:33.084Z,80.46
2023-04-14T04:34:08.428Z,80.31
2023-04-14T04:36:35.930Z,80.29
2023-04-14T04:39:04.066Z,80.48
2023-04-14T04:41:31.033Z,80.50
2023-04-14T04:43:58.478Z,80.54
2023-04-14T04:46:48.313Z,80.78
2023-04-14T04:49:19.914Z,81.09
2023-04-14T04:51:49.597Z,81.12
2023-04-14T04:54:33.697Z,81.18
2023-04-14T04:57:00.588Z,81.54
2023-04-14T04:59:37.399Z,81.67
2023-04-14T05:02:02.107Z,81.76
2023-04-14T05:04:28.285Z,81.94
2023-04-14T05:06:51.880Z,81.93
2023-04-14T05:09:21.089Z,82.03
2023-04-14T05:11:50.382Z,82.08
2023-04-14T05:14:14.031Z,82.06
2023-04-14T05:16:37.631Z,82.11
2023-04-14T05:19:01.441Z,82.07
2023-04-14T05:21:25.243Z,82.12
2023-04-14T05:23:51.505Z,82.43
2023-04-14T05:28:57.961Z,82.35
2023-04-14T05:31:24.758Z,82.45
2023-04-14T05:33:52.948Z,82.43
2023-04-14T05:36:26.801Z,82.34
2023-04-14T05:38:53.649Z,82.47
2023-04-14T05:41:17.290Z,82.31
2023-04-14T05:43:52.122Z,82.30
2023-04-14T05:46:19.067Z,82.22
2023-04-14T05:48:42.638Z,82.08
2023-04-14T05:51:08.467Z,81.98
2023-04-14T05:53:33.940Z,81.97
2023-04-14T05:55:59.846Z,81.85
2023-04-14T05:58:43.517Z,81.57
2023-04-14T06:01:27.511Z,81.23
2023-04-14T06:04:04.214Z,81.07
2023-04-14T06:06:28.090Z,80.51
2023-04-14T06:08:54.771Z,80.62
2023-04-14T06:11:18.225Z,79.73
2023-04-14T06:13:52.048Z,77.91
2023-04-14T06:16:15.774Z,77.17
2023-04-14T06:18:39.644Z,76.36
2023-04-14T06:21:07.163Z,75.20
2023-04-14T06:23:33.215Z,74.70
2023-04-14T06:25:57.373Z,73.92
2023-04-14T06:28:23.459Z,73.41
2023-04-14T06:30:47.464Z,73.34
2023-04-14T06:33:11.072Z,71.17
2023-04-14T06:35:35.082Z,69.65
2023-04-14T06:37:58.484Z,67.44
2023-04-14T06:40:22.215Z,65.68
2023-04-14T06:42:48.634Z,64.43
2023-04-14T06:45:12.450Z,64.51
2023-04-14T06:47:35.990Z,62.50
2023-04-14T06:49:59.782Z,61.19
2023-04-14T06:52:23.566Z,60.50
2023-04-14T06:54:47.103Z,59.21
2023-04-14T06:57:10.761Z,58.12
2023-04-14T06:59:34.485Z,58.22
2023-04-14T07:01:58.193Z,58.57
2023-04-14T07:04:22.851Z,56.71
2023-04-14T07:06:46.581Z,54.93
2023-04-14T07:09:09.952Z,54.56
2023-04-14T07:11:33.816Z,53.68
2023-04-14T07:13:57.518Z,53.76
2023-04-14T07:16:21.366Z,53.20
2023-04-14T07:18:44.981Z,53.13
2023-04-14T07:21:08.444Z,52.66
2023-04-14T07:23:33.021Z,51.63
2023-04-14T07:25:57.988Z,50.03
2023-04-14T07:28:22.581Z,49.09
2023-04-14T07:30:46.541Z,47.81
2023-04-14T07:33:10.228Z,45.56
2023-04-14T07:35:33.907Z,44.99
2023-04-14T07:37:57.638Z,44.18
2023-04-14T07:40:21.342Z,43.12
2023-04-14T07:42:46.211Z,41.46
2023-04-14T07:45:11.698Z,39.82
2023-04-14T07:47:35.454Z,37.92
2023-04-14T07:49:59.200Z,36.48
2023-04-14T07:52:22.739Z,36.08
2023-04-14T07:54:46.256Z,34.26
2023-04-14T07:57:10.230Z,34.10
2023-04-14T07:59:33.726Z,33.39
2023-04-14T08:01:57.298Z,32.95
2023-04-14T08:04:21.497Z,32.50
2023-04-14T08:06:44.945Z,31.02
2023-04-14T08:09:08.406Z,29.83
2023-04-14T08:11:31.985Z,29.35
2023-04-14T08:13:55.430Z,28.75
2023-04-14T08:16:19.283Z,29.60
2023-04-14T08:18:42.973Z,28.46
2023-04-14T08:21:06.962Z,27.98
2023-04-14T08:23:30.746Z,27.67
2023-04-14T08:25:54.181Z,27.97
2023-04-14T08:28:17.791Z,27.11
2023-04-14T08:30:41.432Z,27.39
2023-04-14T08:33:05.228Z,27.52
2023-04-14T08:35:37.400Z,27.31
2023-04-14T08:38:04.691Z,27.93
2023-04-14T08:40:35.700Z,27.77
2023-04-14T08:42:59.113Z,27.30
2023-04-14T08:45:23.769Z,28.08
2023-04-14T08:47:51.161Z,27.86
2023-04-14T08:50:18.302Z,28.08
2023-04-14T08:52:43.105Z,27.50
2023-04-14T08:55:10.797Z,26.66
2023-04-14T08:57:35.771Z,27.18
2023-04-14T08:59:59.482Z,27.49
2023-04-14T09:02:23.647Z,27.34
2023-04-14T09:04:49.179Z,26.79
2023-04-14T09:07:13.519Z,26.93
2023-04-14T09:09:37.293Z,27.73
2023-04-14T09:12:02.565Z,28.29
2023-04-14T09:14:27.272Z,27.73
2023-04-14T09:16:53.253Z,28.18
2023-04-14T09:19:17.134Z,28.64
2023-04-14T09:21:52.578Z,29.23
2023-04-14T09:24:23.023Z,29.74
2023-04-14T09:26:46.536Z,29.26
2023-04-14T09:29:09.877Z,29.36
2023-04-14T09:31:34.154Z,29.66
2023-04-14T09:33:58.216Z,30.04
2023-04-14T09:36:22.945Z,31.53
2023-04-14T09:38:47.020Z,32.48
2023-04-14T09:41:16.135Z,33.60
2023-04-14T09:43:40.094Z,34.36
2023-04-14T09:46:07.842Z,35.09
2023-04-14T09:48:31.867Z,35.02
2023-04-14T09:51:00.130Z,34.82
2023-04-14T09:53:27.109Z,34.70
2023-04-14T09:55:51.927Z,34.77
2023-04-14T09:58:21.363Z,35.01
2023-04-14T10:00:46.146Z,35.24
2023-04-14T10:03:09.707Z,35.60
2023-04-14T10:05:34.698Z,35.59
2023-04-14T10:08:03.247Z,36.00
2023-04-14T10:10:27.301Z,35.77
2023-04-14T10:12:54.008Z,35.24
2023-04-14T10:15:17.881Z,34.73
2023-04-14T10:17:42.045Z,35.27
2023-04-14T10:20:08.244Z,35.67
2023-04-14T10:22:33.089Z,36.47
2023-04-14T10:24:58.280Z,37.23
2023-04-14T10:27:22.478Z,36.72
2023-04-14T10:29:46.616Z,37.16
2023-04-14T10:32:13.415Z,37.50
2023-04-14T10:34:41.970Z,37.25
2023-04-14T10:37:16.366Z,36.86
2023-04-14T10:39:40.337Z,36.70
2023-04-14T10:42:03.943Z,36.91
2023-04-14T10:44:31.111Z,36.83
2023-04-14T10:46:55.745Z,36.96
2023-04-14T10:49:22.076Z,37.65
2023-04-14T10:51:49.190Z,38.16
2023-04-14T10:54:18.284Z,38.75
2023-04-14T10:56:41.832Z,39.56
2023-04-14T10:59:06.389Z,40.09
2023-04-14T11:01:31.544Z,40.58
2023-04-14T11:03:55.705Z,40.98
2023-04-14T11:06:52.654Z,41.19
2023-04-14T11:09:24.557Z,41.23
2023-04-14T11:11:48.504Z,41.44
2023-04-14T11:14:11.965Z,41.72
2023-04-14T11:16:42.364Z,41.94
2023-04-14T11:19:14.745Z,41.78
2023-04-14T11:21:49.677Z,41.96
2023-04-14T11:24:13.367Z,41.56
2023-04-14T11:26:36.870Z,41.09
2023-04-14T11:29:07.952Z,41.02
2023-04-14T11:31:31.526Z,41.12
2023-04-14T11:33:55.994Z,41.51
2023-04-14T11:36:19.351Z,41.61
2023-04-14T11:38:43.361Z,41.87
2023-04-14T11:41:07.377Z,41.01
2023-04-14T11:43:30.906Z,40.77
2023-04-14T11:45:54.832Z,41.25
2023-04-14T11:48:20.120Z,41.08
2023-04-14T11:50:45.428Z,41.37
2023-04-14T11:53:09.979Z,41.72
2023-04-14T11:55:34.129Z,42.09
2023-04-14T11:57:57.741Z,42.31
2023-04-14T12:00:21.872Z,41.61
2023-04-14T12:02:46.285Z,41.83
2023-04-14T12:05:11.539Z,42.15
2023-04-14T12:07:35.610Z,42.39
2023-04-14T12:09:59.334Z,42.28
2023-04-14T12:12:23.214Z,42.22
2023-04-14T12:14:48.646Z,42.43
2023-04-14T12:17:14.680Z,42.65
2023-04-14T12:19:38.383Z,42.76
2023-04-14T12:22:01.897Z,43.26
2023-04-14T12:24:32.615Z,43.16
2023-04-14T12:26:57.124Z,43.89
2023-04-14T12:29:23.527Z,44.30
2023-04-14T12:31:46.876Z,44.86
2023-04-14T12:34:14.252Z,44.53
2023-04-14T12:36:49.684Z,44.48
2023-04-14T12:39:13.990Z,44.41
2023-04-14T12:41:41.231Z,44.33
2023-04-14T12:44:15.491Z,43.67
2023-04-14T12:46:46.630Z,44.06
2023-04-14T12:49:29.875Z,44.22
2023-04-14T12:51:53.514Z,43.74
2023-04-14T12:54:17.006Z,43.38
2023-04-14T12:56:42.454Z,43.43
2023-04-14T12:59:06.208Z,43.96
2023-04-14T13:01:29.780Z,44.12
2023-04-14T13:03:54.832Z,44.06
2023-04-14T13:06:20.303Z,43.66
2023-04-14T13:08:44.480Z,43.63
2023-04-14T13:11:07.823Z,43.17
2023-04-14T13:13:31.431Z,43.34
2023-04-14T13:16:13.107Z,43.50
2023-04-14T13:18:39.138Z,44.10
2023-04-14T13:21:03.482Z,44.63
2023-04-14T13:23:26.877Z,45.27
2023-04-14T13:25:50.777Z,45.62
2023-04-14T13:28:14.491Z,45.83
2023-04-14T13:30:41.168Z,45.91
2023-04-14T13:33:04.845Z,46.43
2023-04-14T13:35:28.598Z,46.73
2023-04-14T13:37:52.000Z,46.51
2023-04-14T13:40:15.750Z,46.20
2023-04-14T13:42:39.158Z,45.43
2023-04-14T13:45:03.061Z,45.42
2023-04-14T13:47:27.894Z,45.59
2023-04-14T13:49:51.342Z,45.83
2023-04-14T13:52:15.095Z,46.04
2023-04-14T13:54:38.899Z,46.39
2023-04-14T13:57:02.879Z,46.11
2023-04-14T13:59:26.574Z,46.00
2023-04-14T14:01:50.281Z,45.85
2023-04-14T14:04:14.002Z,45.19
2023-04-14T14:06:37.643Z,45.18
2023-04-14T14:09:05.137Z,45.30
2023-04-14T14:11:29.426Z,45.36
2023-04-14T14:13:52.836Z,45.33
2023-04-14T14:16:29.454Z,45.57
2023-04-14T14:19:00.429Z,45.45
2023-04-14T14:21:24.643Z,45.61
2023-04-14T14:23:48.523Z,45.73
2023-04-14T14:26:13.340Z,45.80
2023-04-14T14:28:36.850Z,45.83
2023-04-14T14:31:00.308Z,45.82
2023-04-14T14:33:23.829Z,45.89
2023-04-14T14:35:47.738Z,45.83
2023-04-14T14:38:11.898Z,45.79
2023-04-14T14:40:35.882Z,45.95
2023-04-14T14:42:59.628Z,46.01
2023-04-14T14:45:30.348Z,46.05
2023-04-14T14:47:55.251Z,46.05
2023-04-14T14:50:18.981Z,46.22
2023-04-14T14:52:42.377Z,45.97
2023-04-14T14:55:08.067Z,45.80
2023-04-14T14:57:31.610Z,45.88
2023-04-14T15:00:07.177Z,45.83
2023-04-14T15:02:30.751Z,45.83
2023-04-14T15:04:54.974Z,46.08
2023-04-14T15:07:21.670Z,46.38
2023-04-14T15:09:47.419Z,46.78
2023-04-14T15:12:11.180Z,47.05
2023-04-14T15:14:35.281Z,47.09
2023-04-14T15:16:58.687Z,47.26
2023-04-14T15:19:22.986Z,47.34
2023-04-14T15:21:46.726Z,47.25
2023-04-14T15:24:10.338Z,47.41
2023-04-14T15:26:33.886Z,47.13
2023-04-14T15:28:57.560Z,47.15
2023-04-14T15:31:21.231Z,47.17
2023-04-14T15:33:45.721Z,47.42
2023-04-14T15:36:09.201Z,48.00
2023-04-14T15:38:32.674Z,48.58
2023-04-14T15:40:56.462Z,49.19
2023-04-14T15:43:19.912Z,49.59
2023-04-14T15:45:43.560Z,49.70
2023-04-14T15:48:07.270Z,50.25
2023-04-14T15:50:30.827Z,50.80
2023-04-14T15:52:55.198Z,50.88
2023-04-14T15:55:19.181Z,51.04
2023-04-14T15:57:42.744Z,50.98
2023-04-14T16:00:08.448Z,51.22
2023-04-14T16:02:38.227Z,51.33
2023-04-14T16:05:04.375Z,51.64
2023-04-14T16:07:28.656Z,52.18
2023-04-14T16:09:53.164Z,52.05
2023-04-14T16:12:16.551Z,52.20
2023-04-14T16:14:42.335Z,52.37
2023-04-14T16:17:06.008Z,52.84
2023-04-14T16:19:29.494Z,53.13
2023-04-14T16:21:54.188Z,53.15
2023-04-14T16:24:17.815Z,53.32
2023-04-14T16:26:42.300Z,53.56
2023-04-14T16:29:06.200Z,53.62
2023-04-14T16:31:30.512Z,53.75
2023-04-14T16:33:53.979Z,54.05
2023-04-14T16:36:18.440Z,53.93
2023-04-14T16:38:41.878Z,54.26
2023-04-14T16:41:05.601Z,54.30
2023-04-14T16:43:29.154Z,54.72
2023-04-14T16:45:52.733Z,54.85
2023-04-14T16:48:17.277Z,55.05
2023-04-14T16:50:42.126Z,55.31
2023-04-14T16:53:06.155Z,55.49
2023-04-14T16:55:29.933Z,55.62
2023-04-14T16:57:53.399Z,55.99
2023-04-14T17:00:18.337Z,56.26
2023-04-14T17:02:42.109Z,56.29
2023-04-14T17:05:09.508Z,56.64
2023-04-14T17:07:33.312Z,56.92
2023-04-14T17:09:57.064Z,57.04
2023-04-14T17:12:21.764Z,57.32
2023-04-14T17:14:45.681Z,57.99
2023-04-14T17:17:09.442Z,58.26
2023-04-14T17:19:33.633Z,58.09
2023-04-14T17:21:57.572Z,58.23
2023-04-14T17:24:20.908Z,58.34
2023-04-14T17:26:44.434Z,58.53
2023-04-14T17:29:08.715Z,58.73
2023-04-14T17:31:32.699Z,59.30
2023-04-14T17:33:57.035Z,59.14
2023-04-14T17:36:20.705Z,59.65
2023-04-14T17:38:45.395Z,59.32
2023-04-14T17:41:10.390Z,59.58
2023-04-14T17:43:37.545Z,59.88
2023-04-14T17:46:01.075Z,60.19
2023-04-14T17:48:25.129Z,60.04
2023-04-14T17:50:49.031Z,60.34
2023-04-14T17:53:16.518Z,60.23
2023-04-14T17:55:40.205Z,60.72
2023-04-14T17:58:04.469Z,60.92
2023-04-14T18:00:29.013Z,61.17
2023-04-14T18:02:53.274Z,61.22
2023-04-14T18:05:17.049Z,61.53
2023-04-14T18:07:42.129Z,61.04
2023-04-14T18:10:07.870Z,60.94
2023-04-14T18:12:40.036Z,61.58
2023-04-14T18:15:03.908Z,61.92
2023-04-14T18:17:28.377Z,61.92
2023-04-14T18:19:55.404Z,61.82
2023-04-14T18:22:18.824Z,62.15
2023-04-14T18:29:36.495Z,62.67
2023-04-14T18:32:00.075Z,62.70
2023-04-14T18:34:23.823Z,62.83
2023-04-14T18:36:51.824Z,63.20
2023-04-14T18:39:15.753Z,63.15
2023-04-14T18:41:39.643Z,63.32
2023-04-14T18:44:03.677Z,63.04
2023-04-14T18:46:27.143Z,62.96
2023-04-14T18:48:51.177Z,62.72
2023-04-14T18:51:15.424Z,62.89
2023-04-14T18:53:41.658Z,62.93
2023-04-14T18:56:09.248Z,62.71
2023-04-14T18:58:32.911Z,62.76
2023-04-14T19:00:56.758Z,62.91
2023-04-14T19:03:21.528Z,62.88
2023-04-14T19:05:46.114Z,63.26
2023-04-14T19:08:09.613Z,62.93
2023-04-14T19:10:33.481Z,63.39
2023-04-14T19:12:56.945Z,63.17
2023-04-14T19:15:20.712Z,63.23
2023-04-14T19:17:44.530Z,63.29
2023-04-14T19:20:09.842Z,63.77
2023-04-14T19:22:33.436Z,63.46
2023-04-14T19:24:57.242Z,63.12
2023-04-14T19:27:20.691Z,63.46
2023-04-14T19:29:49.241Z,63.16
2023-04-14T19:32:15.461Z,63.23
2023-04-14T19:34:38.873Z,63.18
2023-04-14T19:37:03.269Z,63.19
2023-04-14T19:39:26.943Z,63.10
2023-04-14T19:41:50.661Z,63.13
2023-04-14T19:44:14.501Z,63.03
2023-04-14T19:46:39.939Z,63.27
2023-04-14T19:49:03.983Z,63.22
2023-04-14T19:51:28.271Z,63.29
2023-04-14T19:53:52.292Z,63.50
2023-04-14T19:56:15.779Z,63.57
2023-04-14T19:58:39.739Z,63.67
2023-04-14T20:01:03.199Z,63.46
2023-04-14T20:03:27.917Z,63.56
2023-04-14T20:05:54.093Z,64.06
2023-04-14T20:08:17.658Z,63.64
2023-04-14T20:10:41.882Z,64.03
2023-04-14T20:13:05.348Z,64.21
2023-04-14T20:15:28.869Z,64.49
2023-04-14T20:17:52.488Z,64.42
2023-04-14T20:20:16.544Z,64.91
2023-04-14T20:22:40.449Z,64.64
2023-04-14T20:25:05.389Z,64.85
2023-04-14T20:27:29.319Z,64.75
2023-04-14T20:29:52.785Z,64.87
2023-04-14T20:32:16.323Z,64.92
2023-04-14T20:34:39.995Z,64.88
2023-04-14T20:37:03.511Z,65.03
2023-04-14T20:39:27.022Z,64.94
2023-04-14T20:41:51.057Z,64.81
2023-04-14T20:44:15.334Z,64.70
2023-04-14T20:46:41.825Z,64.66
2023-04-14T20:49:05.525Z,64.97
2023-04-14T20:51:31.572Z,64.86
2023-04-14T20:53:55.551Z,65.08
2023-04-14T20:56:19.062Z,65.21
2023-04-14T20:58:43.184Z,65.23
2023-04-14T21:01:06.959Z,65.39
2023-04-14T21:03:33.786Z,65.66
2023-04-14T21:05:57.420Z,66.06
2023-04-14T21:08:30.978Z,66.19
2023-04-14T21:11:18.506Z,66.39
2023-04-14T21:15:29.969Z,66.21
2023-04-14T21:16:44.520Z,65.96
2023-04-14T21:19:27.797Z,66.15
2023-04-14T21:21:51.399Z,66.08
2023-04-14T21:24:24.512Z,66.11
2023-04-14T21:27:08.433Z,66.30
2023-04-14T21:29:52.080Z,65.83
2023-04-14T21:32:18.701Z,66.13
2023-04-14T21:34:42.368Z,65.81
2023-04-14T21:37:06.533Z,66.22
2023-04-14T21:39:32.456Z,66.50
2023-04-14T21:41:57.134Z,66.68
2023-04-14T21:44:21.181Z,66.78
2023-04-14T21:46:44.607Z,66.67
2023-04-14T21:49:08.153Z,66.85
2023-04-14T21:51:31.656Z,67.05
2023-04-14T21:53:55.329Z,67.17
2023-04-14T21:56:18.715Z,67.63
2023-04-14T21:58:42.108Z,67.36
2023-04-14T22:01:06.737Z,67.46
2023-04-14T22:03:31.801Z,67.39
2023-04-14T22:05:55.482Z,67.75
2023-04-14T22:08:19.001Z,67.91
2023-04-14T22:10:42.629Z,68.14
2023-04-14T22:13:06.012Z,67.95
2023-04-14T22:15:30.004Z,67.66
2023-04-14T22:17:53.603Z,67.73
2023-04-14T22:20:17.684Z,68.32
2023-04-14T22:22:41.740Z,68.47
2023-04-14T22:25:06.993Z,68.12
2023-04-14T22:27:30.741Z,68.18
2023-04-14T22:29:54.293Z,68.26
2023-04-14T22:32:17.725Z,68.53
2023-04-14T22:34:41.873Z,68.46
2023-04-14T22:37:06.723Z,68.01
2023-04-14T22:39:30.377Z,68.18
2023-04-14T22:41:53.798Z,68.33
2023-04-14T22:44:18.609Z,68.27
2023-04-14T22:46:42.109Z,68.36
2023-04-14T22:49:05.797Z,68.72
2023-04-14T22:51:29.571Z,68.75
2023-04-14T22:53:53.187Z,68.59
2023-04-14T22:56:16.584Z,68.68
2023-04-14T22:58:40.154Z,68.91
2023-04-14T23:01:12.073Z,68.65
2023-04-14T23:03:39.446Z,68.78
2023-04-14T23:06:03.265Z,69.06
2023-04-14T23:08:26.735Z,68.90
2023-04-14T23:10:50.162Z,69.02
2023-04-14T23:13:13.448Z,69.11
2023-04-14T23:15:37.004Z,69.03
2023-04-14T23:18:08.714Z,69.59
2023-04-14T23:20:32.365Z,69.08
2023-04-14T23:22:55.879Z,69.04
2023-04-14T23:25:22.312Z,69.08
2023-04-14T23:27:48.714Z,69.00
2023-04-14T23:30:13.530Z,69.08
2023-04-14T23:32:37.172Z,69.06
2023-04-14T23:35:01.083Z,68.64
2023-04-14T23:37:33.758Z,68.82
2023-04-14T23:39:57.583Z,69.05
2023-04-14T23:42:25.705Z,69.09
2023-04-14T23:44:49.298Z,69.30
2023-04-14T23:47:12.925Z,69.07
2023-04-14T23:49:36.655Z,69.27
2023-04-14T23:52:00.430Z,69.27
2023-04-14T23:54:24.323Z,69.64
2023-04-14T23:56:48.264Z,69.34
2023-04-14T23:59:11.908Z,69.72
